sensor_id;sensor_type;location;lat;lon;timestamp;temperature;humidity
9987;DHT22;5033;46.310;11.214;2022-09-09T00:02:28;18.70;99.90
9987;DHT22;5033;46.310;11.214;2022-09-09T00:04:59;18.70;99.90
9987;DHT22;5033;46.310;11.214;2022-09-09T00:07:36;18.70;99.90
9987;DHT22;5033;46.310;11.214;2022-09-09T00:10:16;18.70;99.90
9987;DHT22;5033;46.310;11.214;2022-09-09T00:12:51;18.70;99.90
9987;DHT22;5033;46.310;11.214;2022-09-09T00:15:23;18.70;99.90
9987;DHT22;5033;46.310;11.214;2022-09-09T00:17:58;18.70;99.90
9987;DHT22;5033;46.310;11.214;2022-09-09T00:20:32;18.60;99.90
9987;DHT22;5033;46.310;11.214;2022-09-09T00:23:05;18.60;99.90
9987;DHT22;5033;46.310;11.214;2022-09-09T00:25:42;18.60;99.90
9987;DHT22;5033;46.310;11.214;2022-09-09T00:28:18;18.60;99.90
9987;DHT22;5033;46.310;11.214;2022-09-09T00:30:46;18.60;99.90
9987;DHT22;5033;46.310;11.214;2022-09-09T00:33:17;18.50;99.90
9987;DHT22;5033;46.310;11.214;2022-09-09T00:35:49;18.50;99.90
9987;DHT22;5033;46.310;11.214;2022-09-09T00:38:19;18.40;99.90
9987;DHT22;5033;46.310;11.214;2022-09-09T00:40:51;18.50;99.90
9987;DHT22;5033;46.310;11.214;2022-09-09T00:43:26;18.40;99.90
9987;DHT22;5033;46.310;11.214;2022-09-09T00:46:29;18.40;99.90
9987;DHT22;5033;46.310;11.214;2022-09-09T00:49:05;18.40;99.90
9987;DHT22;5033;46.310;11.214;2022-09-09T00:51:44;18.30;99.90
9987;DHT22;5033;46.310;11.214;2022-09-09T00:54:33;18.30;99.90
9987;DHT22;5033;46.310;11.214;2022-09-09T00:57:12;18.30;99.90
9987;DHT22;5033;46.310;11.214;2022-09-09T00:59:46;18.30;99.90
9987;DHT22;5033;46.310;11.214;2022-09-09T01:02:24;18.20;99.90
9987;DHT22;5033;46.310;11.214;2022-09-09T01:04:56;18.20;99.90
9987;DHT22;5033;46.310;11.214;2022-09-09T01:07:25;18.20;99.90
9987;DHT22;5033;46.310;11.214;2022-09-09T01:09:55;18.20;99.90
9987;DHT22;5033;46.310;11.214;2022-09-09T01:12:33;18.20;99.90
9987;DHT22;5033;46.310;11.214;2022-09-09T01:15:09;18.20;99.90
9987;DHT22;5033;46.310;11.214;2022-09-09T01:17:49;18.30;99.90
9987;DHT22;5033;46.310;11.214;2022-09-09T01:20:22;18.20;99.90
9987;DHT22;5033;46.310;11.214;2022-09-09T01:23:03;18.20;99.90
9987;DHT22;5033;46.310;11.214;2022-09-09T01:28:45;18.20;99.90
9987;DHT22;5033;46.310;11.214;2022-09-09T01:31:17;18.20;99.90
9987;DHT22;5033;46.310;11.214;2022-09-09T01:33:44;18.20;99.90
9987;DHT22;5033;46.310;11.214;2022-09-09T01:36:15;18.20;99.90
9987;DHT22;5033;46.310;11.214;2022-09-09T01:38:46;18.20;99.90
9987;DHT22;5033;46.310;11.214;2022-09-09T01:41:13;18.20;99.90
9987;DHT22;5033;46.310;11.214;2022-09-09T01:43:40;18.20;99.90
9987;DHT22;5033;46.310;11.214;2022-09-09T01:46:09;18.20;99.90
9987;DHT22;5033;46.310;11.214;2022-09-09T01:48:37;18.20;99.90
9987;DHT22;5033;46.310;11.214;2022-09-09T01:51:06;18.20;99.90
9987;DHT22;5033;46.310;11.214;2022-09-09T01:53:34;18.20;99.90
9987;DHT22;5033;46.310;11.214;2022-09-09T01:56:07;18.20;99.90
9987;DHT22;5033;46.310;11.214;2022-09-09T01:58:47;18.20;99.90
9987;DHT22;5033;46.310;11.214;2022-09-09T02:01:28;18.20;99.90
9987;DHT22;5033;46.310;11.214;2022-09-09T02:04:03;18.20;99.90
9987;DHT22;5033;46.310;11.214;2022-09-09T02:06:37;18.20;99.90
9987;DHT22;5033;46.310;11.214;2022-09-09T02:09:06;18.20;99.90
9987;DHT22;5033;46.310;11.214;2022-09-09T02:11:34;18.20;99.90
9987;DHT22;5033;46.310;11.214;2022-09-09T02:14:06;18.20;99.90
9987;DHT22;5033;46.310;11.214;2022-09-09T02:16:40;18.20;99.90
9987;DHT22;5033;46.310;11.214;2022-09-09T02:19:13;18.20;99.90
9987;DHT22;5033;46.310;11.214;2022-09-09T02:21:43;18.30;99.90
9987;DHT22;5033;46.310;11.214;2022-09-09T02:24:13;18.30;99.90
9987;DHT22;5033;46.310;11.214;2022-09-09T02:26:44;18.30;99.90
9987;DHT22;5033;46.310;11.214;2022-09-09T02:29:15;18.30;99.90
9987;DHT22;5033;46.310;11.214;2022-09-09T02:31:47;18.20;99.90
9987;DHT22;5033;46.310;11.214;2022-09-09T02:34:18;18.30;99.90
9987;DHT22;5033;46.310;11.214;2022-09-09T02:36:48;18.30;99.90
9987;DHT22;5033;46.310;11.214;2022-09-09T02:39:16;18.30;99.90
9987;DHT22;5033;46.310;11.214;2022-09-09T02:41:43;18.30;99.90
9987;DHT22;5033;46.310;11.214;2022-09-09T02:44:11;18.20;99.90
9987;DHT22;5033;46.310;11.214;2022-09-09T02:46:58;18.20;99.90
9987;DHT22;5033;46.310;11.214;2022-09-09T02:49:39;18.20;99.90
9987;DHT22;5033;46.310;11.214;2022-09-09T02:52:11;18.20;99.90
9987;DHT22;5033;46.310;11.214;2022-09-09T02:54:42;18.10;99.90
9987;DHT22;5033;46.310;11.214;2022-09-09T02:57:12;18.00;99.90
9987;DHT22;5033;46.310;11.214;2022-09-09T02:59:40;18.10;99.90
9987;DHT22;5033;46.310;11.214;2022-09-09T03:02:08;18.00;99.90
9987;DHT22;5033;46.310;11.214;2022-09-09T03:04:37;18.00;99.90
9987;DHT22;5033;46.310;11.214;2022-09-09T03:07:04;18.00;99.90
9987;DHT22;5033;46.310;11.214;2022-09-09T03:09:31;18.00;99.90
9987;DHT22;5033;46.310;11.214;2022-09-09T03:11:59;18.00;99.90
9987;DHT22;5033;46.310;11.214;2022-09-09T03:14:26;18.00;99.90
9987;DHT22;5033;46.310;11.214;2022-09-09T03:16:53;18.00;99.90
9987;DHT22;5033;46.310;11.214;2022-09-09T03:19:23;18.00;99.90
9987;DHT22;5033;46.310;11.214;2022-09-09T03:21:50;17.90;99.90
9987;DHT22;5033;46.310;11.214;2022-09-09T03:24:17;17.90;99.90
9987;DHT22;5033;46.310;11.214;2022-09-09T03:26:45;17.90;99.90
9987;DHT22;5033;46.310;11.214;2022-09-09T03:29:12;17.90;99.90
9987;DHT22;5033;46.310;11.214;2022-09-09T03:31:40;17.90;99.90
9987;DHT22;5033;46.310;11.214;2022-09-09T03:34:08;17.90;99.90
9987;DHT22;5033;46.310;11.214;2022-09-09T03:36:37;17.90;99.90
9987;DHT22;5033;46.310;11.214;2022-09-09T03:39:04;17.90;99.90
9987;DHT22;5033;46.310;11.214;2022-09-09T03:41:31;17.90;99.90
9987;DHT22;5033;46.310;11.214;2022-09-09T03:43:59;17.90;99.90
9987;DHT22;5033;46.310;11.214;2022-09-09T03:46:26;17.80;99.90
9987;DHT22;5033;46.310;11.214;2022-09-09T03:48:53;17.70;99.90
9987;DHT22;5033;46.310;11.214;2022-09-09T03:51:20;17.70;99.90
9987;DHT22;5033;46.310;11.214;2022-09-09T03:53:49;17.70;99.90
9987;DHT22;5033;46.310;11.214;2022-09-09T03:56:16;17.70;99.90
9987;DHT22;5033;46.310;11.214;2022-09-09T03:58:43;17.80;99.90
9987;DHT22;5033;46.310;11.214;2022-09-09T04:01:12;17.80;99.90
9987;DHT22;5033;46.310;11.214;2022-09-09T04:03:40;17.80;99.90
9987;DHT22;5033;46.310;11.214;2022-09-09T04:06:08;17.80;99.90
9987;DHT22;5033;46.310;11.214;2022-09-09T04:08:37;17.80;99.90
9987;DHT22;5033;46.310;11.214;2022-09-09T04:11:06;17.80;99.90
9987;DHT22;5033;46.310;11.214;2022-09-09T04:13:34;17.80;99.90
9987;DHT22;5033;46.310;11.214;2022-09-09T04:16:02;17.80;99.90
9987;DHT22;5033;46.310;11.214;2022-09-09T04:18:30;17.80;99.90
9987;DHT22;5033;46.310;11.214;2022-09-09T04:20:58;17.80;99.90
9987;DHT22;5033;46.310;11.214;2022-09-09T04:23:26;17.80;99.90
9987;DHT22;5033;46.310;11.214;2022-09-09T04:25:55;17.70;99.90
9987;DHT22;5033;46.310;11.214;2022-09-09T04:28:25;17.70;99.90
9987;DHT22;5033;46.310;11.214;2022-09-09T04:30:53;17.70;99.90
9987;DHT22;5033;46.310;11.214;2022-09-09T04:33:21;17.60;99.90
9987;DHT22;5033;46.310;11.214;2022-09-09T04:35:49;17.60;99.90
9987;DHT22;5033;46.310;11.214;2022-09-09T04:38:20;17.50;99.90
9987;DHT22;5033;46.310;11.214;2022-09-09T04:40:49;17.50;99.90
9987;DHT22;5033;46.310;11.214;2022-09-09T04:43:17;17.40;99.90
9987;DHT22;5033;46.310;11.214;2022-09-09T04:45:47;17.50;99.90
9987;DHT22;5033;46.310;11.214;2022-09-09T04:48:15;17.50;99.90
9987;DHT22;5033;46.310;11.214;2022-09-09T04:50:42;17.60;99.90
9987;DHT22;5033;46.310;11.214;2022-09-09T04:53:09;17.70;99.90
9987;DHT22;5033;46.310;11.214;2022-09-09T04:55:36;17.70;99.90
9987;DHT22;5033;46.310;11.214;2022-09-09T04:58:04;17.70;99.90
9987;DHT22;5033;46.310;11.214;2022-09-09T05:00:31;17.60;99.90
9987;DHT22;5033;46.310;11.214;2022-09-09T05:03:02;17.60;99.90
9987;DHT22;5033;46.310;11.214;2022-09-09T05:05:30;17.60;99.90
9987;DHT22;5033;46.310;11.214;2022-09-09T05:08:01;17.60;99.90
9987;DHT22;5033;46.310;11.214;2022-09-09T05:10:29;17.70;99.90
9987;DHT22;5033;46.310;11.214;2022-09-09T05:12:56;17.80;99.90
9987;DHT22;5033;46.310;11.214;2022-09-09T05:15:23;17.90;99.90
9987;DHT22;5033;46.310;11.214;2022-09-09T05:17:50;17.90;99.90
9987;DHT22;5033;46.310;11.214;2022-09-09T05:20:20;18.00;99.90
9987;DHT22;5033;46.310;11.214;2022-09-09T05:22:47;18.10;99.90
9987;DHT22;5033;46.310;11.214;2022-09-09T05:25:15;18.20;99.90
9987;DHT22;5033;46.310;11.214;2022-09-09T05:27:42;18.20;99.90
9987;DHT22;5033;46.310;11.214;2022-09-09T05:30:10;18.20;99.90
9987;DHT22;5033;46.310;11.214;2022-09-09T05:32:37;18.20;99.90
9987;DHT22;5033;46.310;11.214;2022-09-09T05:35:04;18.20;99.90
9987;DHT22;5033;46.310;11.214;2022-09-09T05:37:33;18.30;99.90
9987;DHT22;5033;46.310;11.214;2022-09-09T05:40:01;18.30;99.90
9987;DHT22;5033;46.310;11.214;2022-09-09T05:42:30;18.40;99.90
9987;DHT22;5033;46.310;11.214;2022-09-09T05:44:58;18.50;99.90
9987;DHT22;5033;46.310;11.214;2022-09-09T05:47:25;18.50;99.90
9987;DHT22;5033;46.310;11.214;2022-09-09T05:49:53;18.50;99.90
9987;DHT22;5033;46.310;11.214;2022-09-09T05:52:21;18.50;99.90
9987;DHT22;5033;46.310;11.214;2022-09-09T05:54:49;18.50;99.90
9987;DHT22;5033;46.310;11.214;2022-09-09T05:57:16;18.50;99.90
9987;DHT22;5033;46.310;11.214;2022-09-09T05:59:45;18.40;99.90
9987;DHT22;5033;46.310;11.214;2022-09-09T06:02:12;18.40;99.90
9987;DHT22;5033;46.310;11.214;2022-09-09T06:04:39;18.30;99.90
9987;DHT22;5033;46.310;11.214;2022-09-09T06:07:07;18.30;99.90
9987;DHT22;5033;46.310;11.214;2022-09-09T06:09:34;18.20;99.90
9987;DHT22;5033;46.310;11.214;2022-09-09T06:12:03;18.30;99.90
9987;DHT22;5033;46.310;11.214;2022-09-09T06:14:30;18.50;99.90
9987;DHT22;5033;46.310;11.214;2022-09-09T06:16:57;18.70;99.90
9987;DHT22;5033;46.310;11.214;2022-09-09T06:19:24;18.80;99.90
9987;DHT22;5033;46.310;11.214;2022-09-09T06:21:52;18.80;99.90
9987;DHT22;5033;46.310;11.214;2022-09-09T06:24:20;18.80;99.90
9987;DHT22;5033;46.310;11.214;2022-09-09T06:26:47;18.80;99.90
9987;DHT22;5033;46.310;11.214;2022-09-09T06:29:16;18.90;99.90
9987;DHT22;5033;46.310;11.214;2022-09-09T06:31:43;19.00;99.90
9987;DHT22;5033;46.310;11.214;2022-09-09T06:34:10;19.00;99.90
9987;DHT22;5033;46.310;11.214;2022-09-09T06:36:38;18.90;99.90
9987;DHT22;5033;46.310;11.214;2022-09-09T06:39:08;18.80;99.90
9987;DHT22;5033;46.310;11.214;2022-09-09T06:41:38;18.70;99.90
9987;DHT22;5033;46.310;11.214;2022-09-09T06:44:05;18.70;99.90
9987;DHT22;5033;46.310;11.214;2022-09-09T06:46:33;18.70;99.90
9987;DHT22;5033;46.310;11.214;2022-09-09T06:49:01;18.70;99.90
9987;DHT22;5033;46.310;11.214;2022-09-09T06:51:30;18.70;99.90
9987;DHT22;5033;46.310;11.214;2022-09-09T06:53:58;18.60;99.90
9987;DHT22;5033;46.310;11.214;2022-09-09T06:56:29;18.50;99.90
9987;DHT22;5033;46.310;11.214;2022-09-09T06:58:57;18.40;99.90
9987;DHT22;5033;46.310;11.214;2022-09-09T07:01:27;18.50;99.90
9987;DHT22;5033;46.310;11.214;2022-09-09T07:03:58;18.60;99.90
9987;DHT22;5033;46.310;11.214;2022-09-09T07:06:27;18.70;99.90
9987;DHT22;5033;46.310;11.214;2022-09-09T07:08:55;18.90;99.90
9987;DHT22;5033;46.310;11.214;2022-09-09T07:11:25;19.00;99.90
9987;DHT22;5033;46.310;11.214;2022-09-09T07:13:52;19.10;99.90
9987;DHT22;5033;46.310;11.214;2022-09-09T07:16:21;19.30;99.90
9987;DHT22;5033;46.310;11.214;2022-09-09T07:18:49;19.50;99.90
9987;DHT22;5033;46.310;11.214;2022-09-09T07:21:18;19.70;99.90
9987;DHT22;5033;46.310;11.214;2022-09-09T07:23:46;19.90;99.90
9987;DHT22;5033;46.310;11.214;2022-09-09T07:26:14;19.90;99.90
9987;DHT22;5033;46.310;11.214;2022-09-09T07:28:42;19.80;99.90
9987;DHT22;5033;46.310;11.214;2022-09-09T07:31:14;19.60;99.90
9987;DHT22;5033;46.310;11.214;2022-09-09T07:33:43;19.40;99.90
9987;DHT22;5033;46.310;11.214;2022-09-09T07:36:13;19.30;99.90
9987;DHT22;5033;46.310;11.214;2022-09-09T07:38:43;19.30;99.90
9987;DHT22;5033;46.310;11.214;2022-09-09T07:41:13;19.20;99.90
9987;DHT22;5033;46.310;11.214;2022-09-09T07:43:41;19.10;99.90
9987;DHT22;5033;46.310;11.214;2022-09-09T07:46:09;19.00;99.90
9987;DHT22;5033;46.310;11.214;2022-09-09T07:48:36;19.00;99.90
9987;DHT22;5033;46.310;11.214;2022-09-09T07:51:08;19.00;99.90
9987;DHT22;5033;46.310;11.214;2022-09-09T07:53:37;19.00;99.90
9987;DHT22;5033;46.310;11.214;2022-09-09T07:56:09;18.90;99.90
9987;DHT22;5033;46.310;11.214;2022-09-09T07:58:36;18.80;99.90
9987;DHT22;5033;46.310;11.214;2022-09-09T08:01:08;18.70;99.90
9987;DHT22;5033;46.310;11.214;2022-09-09T08:03:36;18.40;99.90
9987;DHT22;5033;46.310;11.214;2022-09-09T08:06:04;18.20;99.90
9987;DHT22;5033;46.310;11.214;2022-09-09T08:08:32;17.90;99.90
9987;DHT22;5033;46.310;11.214;2022-09-09T08:11:08;17.80;99.90
9987;DHT22;5033;46.310;11.214;2022-09-09T08:13:37;17.70;99.90
9987;DHT22;5033;46.310;11.214;2022-09-09T08:16:10;17.60;99.90
9987;DHT22;5033;46.310;11.214;2022-09-09T08:18:37;17.60;99.90
9987;DHT22;5033;46.310;11.214;2022-09-09T08:21:07;17.50;99.90
9987;DHT22;5033;46.310;11.214;2022-09-09T08:23:34;17.50;99.90
9987;DHT22;5033;46.310;11.214;2022-09-09T08:26:09;17.50;99.90
9987;DHT22;5033;46.310;11.214;2022-09-09T08:28:36;17.50;99.90
9987;DHT22;5033;46.310;11.214;2022-09-09T08:31:08;17.60;99.90
9987;DHT22;5033;46.310;11.214;2022-09-09T08:33:36;17.70;99.90
9987;DHT22;5033;46.310;11.214;2022-09-09T08:36:04;17.70;99.90
9987;DHT22;5033;46.310;11.214;2022-09-09T08:38:32;17.70;99.90
9987;DHT22;5033;46.310;11.214;2022-09-09T08:41:22;17.70;99.90
9987;DHT22;5033;46.310;11.214;2022-09-09T08:44:03;17.70;99.90
9987;DHT22;5033;46.310;11.214;2022-09-09T08:46:39;17.80;99.90
9987;DHT22;5033;46.310;11.214;2022-09-09T08:49:18;17.90;99.90
9987;DHT22;5033;46.310;11.214;2022-09-09T08:51:47;18.00;99.90
9987;DHT22;5033;46.310;11.214;2022-09-09T08:54:15;18.00;99.90
9987;DHT22;5033;46.310;11.214;2022-09-09T08:56:44;17.80;99.90
9987;DHT22;5033;46.310;11.214;2022-09-09T08:59:16;17.50;99.90
9987;DHT22;5033;46.310;11.214;2022-09-09T09:02:00;17.20;99.90
9987;DHT22;5033;46.310;11.214;2022-09-09T09:04:40;16.90;99.90
9987;DHT22;5033;46.310;11.214;2022-09-09T09:07:19;16.80;99.90
9987;DHT22;5033;46.310;11.214;2022-09-09T09:09:56;16.70;99.90
9987;DHT22;5033;46.310;11.214;2022-09-09T09:12:28;16.60;99.90
9987;DHT22;5033;46.310;11.214;2022-09-09T09:14:56;16.60;99.90
9987;DHT22;5033;46.310;11.214;2022-09-09T09:17:26;16.60;99.90
9987;DHT22;5033;46.310;11.214;2022-09-09T09:19:57;16.50;99.90
9987;DHT22;5033;46.310;11.214;2022-09-09T09:22:32;16.40;99.90
9987;DHT22;5033;46.310;11.214;2022-09-09T09:25:08;16.40;99.90
9987;DHT22;5033;46.310;11.214;2022-09-09T09:27:43;16.40;99.90
9987;DHT22;5033;46.310;11.214;2022-09-09T09:30:16;16.40;99.90
9987;DHT22;5033;46.310;11.214;2022-09-09T09:32:50;16.40;99.90
9987;DHT22;5033;46.310;11.214;2022-09-09T09:35:18;16.50;99.90
9987;DHT22;5033;46.310;11.214;2022-09-09T09:37:45;16.70;99.90
9987;DHT22;5033;46.310;11.214;2022-09-09T09:40:15;16.80;99.90
9987;DHT22;5033;46.310;11.214;2022-09-09T09:42:52;16.90;99.90
9987;DHT22;5033;46.310;11.214;2022-09-09T09:45:27;16.90;99.90
9987;DHT22;5033;46.310;11.214;2022-09-09T09:47:59;17.20;99.90
9987;DHT22;5033;46.310;11.214;2022-09-09T09:50:28;17.40;99.90
9987;DHT22;5033;46.310;11.214;2022-09-09T09:52:56;17.50;99.90
9987;DHT22;5033;46.310;11.214;2022-09-09T09:55:24;17.50;99.90
9987;DHT22;5033;46.310;11.214;2022-09-09T09:58:01;17.40;99.90
9987;DHT22;5033;46.310;11.214;2022-09-09T10:00:28;17.50;99.90
9987;DHT22;5033;46.310;11.214;2022-09-09T10:02:55;17.50;99.90
9987;DHT22;5033;46.310;11.214;2022-09-09T10:05:26;17.70;99.90
9987;DHT22;5033;46.310;11.214;2022-09-09T10:08:04;17.80;99.90
9987;DHT22;5033;46.310;11.214;2022-09-09T10:10:39;18.00;99.90
9987;DHT22;5033;46.310;11.214;2022-09-09T10:13:15;18.20;99.90
9987;DHT22;5033;46.310;11.214;2022-09-09T10:15:55;18.50;99.90
9987;DHT22;5033;46.310;11.214;2022-09-09T10:18:38;18.80;99.90
9987;DHT22;5033;46.310;11.214;2022-09-09T10:21:20;19.20;99.90
9987;DHT22;5033;46.310;11.214;2022-09-09T10:24:02;19.40;99.90
9987;DHT22;5033;46.310;11.214;2022-09-09T10:26:40;19.40;99.90
9987;DHT22;5033;46.310;11.214;2022-09-09T10:29:19;19.20;99.90
9987;DHT22;5033;46.310;11.214;2022-09-09T10:31:56;19.20;99.90
9987;DHT22;5033;46.310;11.214;2022-09-09T10:34:46;19.20;99.90
9987;DHT22;5033;46.310;11.214;2022-09-09T10:37:27;19.40;99.90
9987;DHT22;5033;46.310;11.214;2022-09-09T10:40:04;20.00;99.90
9987;DHT22;5033;46.310;11.214;2022-09-09T10:42:35;20.30;99.90
9987;DHT22;5033;46.310;11.214;2022-09-09T10:45:15;20.40;99.90
9987;DHT22;5033;46.310;11.214;2022-09-09T10:47:55;20.50;99.90
9987;DHT22;5033;46.310;11.214;2022-09-09T10:50:49;20.50;99.90
9987;DHT22;5033;46.310;11.214;2022-09-09T10:53:24;20.40;99.90
9987;DHT22;5033;46.310;11.214;2022-09-09T10:55:59;20.00;99.90
9987;DHT22;5033;46.310;11.214;2022-09-09T10:58:31;19.80;99.90
9987;DHT22;5033;46.310;11.214;2022-09-09T11:01:09;19.90;99.90
9987;DHT22;5033;46.310;11.214;2022-09-09T11:03:40;20.10;99.90
9987;DHT22;5033;46.310;11.214;2022-09-09T11:06:13;20.00;99.90
9987;DHT22;5033;46.310;11.214;2022-09-09T11:08:42;19.80;99.90
9987;DHT22;5033;46.310;11.214;2022-09-09T11:11:12;19.60;99.90
9987;DHT22;5033;46.310;11.214;2022-09-09T11:13:45;19.40;99.90
9987;DHT22;5033;46.310;11.214;2022-09-09T11:16:24;19.30;99.90
9987;DHT22;5033;46.310;11.214;2022-09-09T11:18:57;19.20;99.90
9987;DHT22;5033;46.310;11.214;2022-09-09T11:21:29;19.30;99.90
9987;DHT22;5033;46.310;11.214;2022-09-09T11:24:00;19.30;99.90
9987;DHT22;5033;46.310;11.214;2022-09-09T11:26:36;19.30;99.90
9987;DHT22;5033;46.310;11.214;2022-09-09T11:29:41;19.30;99.90
9987;DHT22;5033;46.310;11.214;2022-09-09T11:32:27;19.30;99.90
9987;DHT22;5033;46.310;11.214;2022-09-09T11:35:08;19.30;99.90
9987;DHT22;5033;46.310;11.214;2022-09-09T11:37:59;19.20;99.90
9987;DHT22;5033;46.310;11.214;2022-09-09T11:40:30;19.40;99.90
9987;DHT22;5033;46.310;11.214;2022-09-09T11:43:05;19.60;99.90
9987;DHT22;5033;46.310;11.214;2022-09-09T11:45:35;19.70;99.90
9987;DHT22;5033;46.310;11.214;2022-09-09T11:48:05;19.70;99.90
9987;DHT22;5033;46.310;11.214;2022-09-09T11:50:34;19.60;99.90
9987;DHT22;5033;46.310;11.214;2022-09-09T11:53:14;19.50;99.90
9987;DHT22;5033;46.310;11.214;2022-09-09T11:55:42;19.60;99.90
9987;DHT22;5033;46.310;11.214;2022-09-09T11:58:17;20.10;99.90
9987;DHT22;5033;46.310;11.214;2022-09-09T12:00:47;20.40;99.90
9987;DHT22;5033;46.310;11.214;2022-09-09T12:03:39;20.50;99.90
9987;DHT22;5033;46.310;11.214;2022-09-09T12:06:18;20.40;99.90
9987;DHT22;5033;46.310;11.214;2022-09-09T12:08:48;20.40;99.90
9987;DHT22;5033;46.310;11.214;2022-09-09T12:11:29;20.50;99.90
9987;DHT22;5033;46.310;11.214;2022-09-09T12:13:58;20.90;99.90
9987;DHT22;5033;46.310;11.214;2022-09-09T12:16:32;21.00;99.90
9987;DHT22;5033;46.310;11.214;2022-09-09T12:19:15;21.50;99.90
9987;DHT22;5033;46.310;11.214;2022-09-09T12:21:48;22.20;99.90
9987;DHT22;5033;46.310;11.214;2022-09-09T12:24:22;22.60;99.90
9987;DHT22;5033;46.310;11.214;2022-09-09T12:26:55;22.80;99.90
9987;DHT22;5033;46.310;11.214;2022-09-09T12:29:29;22.90;99.90
9987;DHT22;5033;46.310;11.214;2022-09-09T12:32:04;22.90;99.90
9987;DHT22;5033;46.310;11.214;2022-09-09T12:34:38;23.00;99.90
9987;DHT22;5033;46.310;11.214;2022-09-09T12:37:15;22.80;99.90
9987;DHT22;5033;46.310;11.214;2022-09-09T12:39:46;22.80;99.90
9987;DHT22;5033;46.310;11.214;2022-09-09T12:42:17;22.80;99.90
9987;DHT22;5033;46.310;11.214;2022-09-09T12:44:52;22.80;99.90
9987;DHT22;5033;46.310;11.214;2022-09-09T12:47:21;22.80;99.90
9987;DHT22;5033;46.310;11.214;2022-09-09T12:49:52;22.60;99.90
9987;DHT22;5033;46.310;11.214;2022-09-09T12:52:26;22.40;99.90
9987;DHT22;5033;46.310;11.214;2022-09-09T12:54:57;22.30;99.90
9987;DHT22;5033;46.310;11.214;2022-09-09T12:57:26;22.30;99.90
9987;DHT22;5033;46.310;11.214;2022-09-09T13:00:08;22.40;99.90
9987;DHT22;5033;46.310;11.214;2022-09-09T13:02:46;22.70;99.90
9987;DHT22;5033;46.310;11.214;2022-09-09T13:05:19;22.80;99.90
9987;DHT22;5033;46.310;11.214;2022-09-09T13:07:46;22.80;99.90
9987;DHT22;5033;46.310;11.214;2022-09-09T13:10:15;22.80;99.90
9987;DHT22;5033;46.310;11.214;2022-09-09T13:12:46;22.80;99.90
9987;DHT22;5033;46.310;11.214;2022-09-09T13:15:19;22.90;99.90
9987;DHT22;5033;46.310;11.214;2022-09-09T13:17:56;22.90;99.90
9987;DHT22;5033;46.310;11.214;2022-09-09T13:20:25;23.00;99.90
9987;DHT22;5033;46.310;11.214;2022-09-09T13:22:53;22.90;99.90
9987;DHT22;5033;46.310;11.214;2022-09-09T13:25:24;22.80;99.90
9987;DHT22;5033;46.310;11.214;2022-09-09T13:27:56;22.60;99.90
9987;DHT22;5033;46.310;11.214;2022-09-09T13:30:26;22.60;99.90
9987;DHT22;5033;46.310;11.214;2022-09-09T13:33:01;22.70;99.90
9987;DHT22;5033;46.310;11.214;2022-09-09T13:35:30;22.90;99.90
9987;DHT22;5033;46.310;11.214;2022-09-09T13:37:58;23.10;99.90
9987;DHT22;5033;46.310;11.214;2022-09-09T13:40:27;23.20;99.90
9987;DHT22;5033;46.310;11.214;2022-09-09T13:42:56;23.20;99.90
9987;DHT22;5033;46.310;11.214;2022-09-09T13:45:28;23.40;99.90
9987;DHT22;5033;46.310;11.214;2022-09-09T13:47:58;23.50;99.90
9987;DHT22;5033;46.310;11.214;2022-09-09T13:50:37;23.50;99.90
9987;DHT22;5033;46.310;11.214;2022-09-09T13:53:04;23.70;99.90
9987;DHT22;5033;46.310;11.214;2022-09-09T13:55:31;23.90;99.90
9987;DHT22;5033;46.310;11.214;2022-09-09T13:58:00;23.80;99.90
9987;DHT22;5033;46.310;11.214;2022-09-09T14:00:30;23.70;99.90
9987;DHT22;5033;46.310;11.214;2022-09-09T14:02:57;23.70;99.90
9987;DHT22;5033;46.310;11.214;2022-09-09T14:05:27;23.60;99.90
9987;DHT22;5033;46.310;11.214;2022-09-09T14:07:57;23.60;99.90
9987;DHT22;5033;46.310;11.214;2022-09-09T14:10:26;23.70;99.90
9987;DHT22;5033;46.310;11.214;2022-09-09T14:12:53;23.70;99.90
9987;DHT22;5033;46.310;11.214;2022-09-09T14:15:20;23.70;99.90
9987;DHT22;5033;46.310;11.214;2022-09-09T14:17:48;23.70;99.90
9987;DHT22;5033;46.310;11.214;2022-09-09T14:20:15;23.70;99.90
9987;DHT22;5033;46.310;11.214;2022-09-09T14:22:43;23.80;99.90
9987;DHT22;5033;46.310;11.214;2022-09-09T14:25:12;24.00;99.90
9987;DHT22;5033;46.310;11.214;2022-09-09T14:27:39;24.00;99.90
9987;DHT22;5033;46.310;11.214;2022-09-09T14:30:09;23.90;99.90
9987;DHT22;5033;46.310;11.214;2022-09-09T14:32:36;23.80;99.90
9987;DHT22;5033;46.310;11.214;2022-09-09T14:35:04;23.80;99.90
9987;DHT22;5033;46.310;11.214;2022-09-09T14:37:31;24.00;99.90
9987;DHT22;5033;46.310;11.214;2022-09-09T14:39:58;23.90;99.90
9987;DHT22;5033;46.310;11.214;2022-09-09T14:42:27;23.90;99.90
9987;DHT22;5033;46.310;11.214;2022-09-09T14:44:55;24.10;99.90
9987;DHT22;5033;46.310;11.214;2022-09-09T14:47:22;24.10;99.90
9987;DHT22;5033;46.310;11.214;2022-09-09T14:49:49;24.10;99.90
9987;DHT22;5033;46.310;11.214;2022-09-09T14:52:17;23.90;99.90
9987;DHT22;5033;46.310;11.214;2022-09-09T14:54:44;23.70;99.90
9987;DHT22;5033;46.310;11.214;2022-09-09T14:57:11;23.50;99.90
9987;DHT22;5033;46.310;11.214;2022-09-09T14:59:39;23.50;99.90
9987;DHT22;5033;46.310;11.214;2022-09-09T15:02:08;23.60;99.90
9987;DHT22;5033;46.310;11.214;2022-09-09T15:04:35;23.80;99.90
9987;DHT22;5033;46.310;11.214;2022-09-09T15:07:02;23.90;99.90
9987;DHT22;5033;46.310;11.214;2022-09-09T15:09:29;24.10;99.90
9987;DHT22;5033;46.310;11.214;2022-09-09T15:11:56;24.30;99.90
9987;DHT22;5033;46.310;11.214;2022-09-09T15:14:23;24.50;99.90
9987;DHT22;5033;46.310;11.214;2022-09-09T15:16:53;24.60;99.90
9987;DHT22;5033;46.310;11.214;2022-09-09T15:19:20;24.60;99.90
9987;DHT22;5033;46.310;11.214;2022-09-09T15:21:47;24.50;99.90
9987;DHT22;5033;46.310;11.214;2022-09-09T15:24:16;24.20;99.90
9987;DHT22;5033;46.310;11.214;2022-09-09T15:26:43;24.00;99.90
9987;DHT22;5033;46.310;11.214;2022-09-09T15:29:10;23.70;99.90
9987;DHT22;5033;46.310;11.214;2022-09-09T15:31:37;23.40;99.90
9987;DHT22;5033;46.310;11.214;2022-09-09T15:34:06;23.20;99.90
9987;DHT22;5033;46.310;11.214;2022-09-09T15:36:35;23.00;99.90
9987;DHT22;5033;46.310;11.214;2022-09-09T15:39:04;22.90;99.90
9987;DHT22;5033;46.310;11.214;2022-09-09T15:41:31;22.80;99.90
9987;DHT22;5033;46.310;11.214;2022-09-09T15:43:58;22.60;99.90
9987;DHT22;5033;46.310;11.214;2022-09-09T15:46:31;22.50;99.90
9987;DHT22;5033;46.310;11.214;2022-09-09T15:49:02;22.40;99.90
9987;DHT22;5033;46.310;11.214;2022-09-09T15:51:31;22.30;99.90
9987;DHT22;5033;46.310;11.214;2022-09-09T15:53:58;22.20;99.90
9987;DHT22;5033;46.310;11.214;2022-09-09T15:56:27;22.10;99.90
9987;DHT22;5033;46.310;11.214;2022-09-09T15:58:56;22.10;99.90
9987;DHT22;5033;46.310;11.214;2022-09-09T16:01:25;22.10;99.90
9987;DHT22;5033;46.310;11.214;2022-09-09T16:03:53;22.10;99.90
9987;DHT22;5033;46.310;11.214;2022-09-09T16:06:22;22.00;99.90
9987;DHT22;5033;46.310;11.214;2022-09-09T16:08:52;21.80;99.90
9987;DHT22;5033;46.310;11.214;2022-09-09T16:11:21;21.60;99.90
9987;DHT22;5033;46.310;11.214;2022-09-09T16:13:50;21.40;99.90